AirNav   Air Wisconsin pilot careers
 
 1534 users online  

8CO1 Prospect Peak Heliport
Texas Creek, Colorado, USA

GOING TO TEXAS CREEK?


FAA INFORMATION EFFECTIVE 07 DECEMBER 2017

Location

FAA Identifier: 8CO1
Lat/Long: 38-28-40.0000N / 105-31-16.0000W
38-28.666667N / 105-31.266667W
38.4777778 / -105.5211111
(estimated)
Elevation: 8660 ft. / 2640 m (estimated)
Variation: 11E (1995)
From city: 5 miles NE of TEXAS CREEK, CO
Time zone: UTC -7 (UTC -6 during Daylight Saving Time)
Zip code: 81212

Heliport Operations

Heliport use: Private use. Permission required prior to landing
Activation date: 10/1997
Control tower: no
ARTCC: DENVER CENTER
FSS: DENVER FLIGHT SERVICE STATION
Attendance: UNATNDD
Segmented circle: no

Heliport Communications

WX AWOS-3 at 1V6 (20 nm E): 120.025 ((719)784-2014)

Nearby radio navigation aids

VOR radial/distance  VOR name  Freq  Var
FCSr239/37.9BUTTS VOR/DME108.8012E

 
NDB name  Hdg/Dist  Freq  Var  ID
IRONHORSE240/38.033512EIHS .. .... ...

Heliport Services

Runway Information

Helipad H1

Dimensions: 20 x 20 ft. / 6 x 6 m
Surface: dirt
Traffic pattern: leftleft

Heliport Ownership and Management from official FAA records

Ownership: Privately-owned
Owner: CENTURYLINK
7405 SOUTH PEORIA STREET
ENGLEWOOD, CO 80112
Phone (303) 643-4972
Manager: GEORGE KIMMES
7405 SOUTH PEORIA STREET
ENGLEWOOD, CO 80112
Phone (303) 643-4972
DARREN ALMSKOG 303-304-9960 DARREN.ALMSKOG@CENTURYLINK.COM

Additional Remarks

A52-H1 HAS +30 FT TWR 100 FT W.

Instrument Procedures

There are no published instrument procedures at 8CO1.

Some nearby airports with instrument procedures:

1V6 - Fremont County Airport (20 nm E)
KANK - Harriet Alexander Field Airport (25 nm W)
KAEJ - Central Colorado Regional Airport (35 nm NW)
KCOS - City of Colorado Springs Municipal Airport (43 nm NE)
KPUB - Pueblo Memorial Airport (49 nm E)
 
Loc | Ops | Rwys | IFR | FBO | Links
Com | Nav | Svcs | Stats | Notes


 
Area around 8CO1 (Prospect Peak Heliport)
 
Road maps at: MapQuest Bing Google
 
Aerial photo
No photo
 
Sectional chart

 
Airport distance calculator
Flying to Prospect Peak Heliport? Find the distance to fly.

From to 8CO1

Sunrise and sunset
Times for 11-Dec-2017
 Local
(UTC-7)
 Zulu
(UTC)
Morning civil twilight06:4113:41
Sunrise07:1014:10
Sunset16:4023:40
Evening civil twilight17:1000:10

Current date and time
Zulu (UTC)  11-Dec-2017 17:55:57
Local (UTC-7)  11-Dec-2017 10:55:57
 
METAR
K1V6 
20nm E 
111730Z AUTO 26010G15KT 10SM CLR 15/M17 A3033 RMK AO2
KANK 
25nm W 
111735Z AUTO 00000KT 10SM CLR 05/M19 A3054 RMK AO1 T00521189
K4BM 
34nm N 
111736Z AUTO 34008G17KT 10SM CLR 02/M25 A3056 RMK AO2 LTG DSNT NW
KAEJ 
35nm NW 
111735Z AUTO 00000KT 10SM CLR 05/M21 A3048 RMK AO2 T00501206
KFCS 
37nm E 
111658Z AUTO 03003KT 10SM CLR 12/M20 A3035 RMK AO2 SLP295 T01171202 $
KMYP 
37nm W 
111731Z AUTO 23013G27KT 210V270 10SM CLR M01/M23 A3069 RMK AO2
K7BM 
38nm NW 
111730Z AUTO 00000KT 10SM CLR 08/M24 A3053 RMK AO2
K04V 
38nm SW 
111730Z AUTO 00000KT 10SM CLR 00/M20 A3052 RMK AO2
TAF
KFCS 
37nm E 
111301Z 1113/1219 31009KT 9999 SKC QNH3031INS BECMG 1119/1120 19006KT 9999 SKC QNH3032INS BECMG 1207/1208 31009KT 9999 SKC QNH3032INS TX13/1121Z TN01/1113Z
KCOS 
43nm NE 
111138Z 1112/1212 35009KT P6SM SKC FM111800 08007KT P6SM FEW250 FM112000 15008KT P6SM FEW250 FM120200 02007KT P6SM SKC
KAFF 
44nm NE 
111202Z 1112/1218 35009KT 9999 SKC 520209 QNH3034INS BECMG 1116/1117 15009KT 9999 SKC 520804 QNH3035INS BECMG 1120/1121 36008KT 9999 SKC 520409 QNH3035INS TEMPO 1121/1123 02012G18KT 510004 BECMG 1202/1203 25007KT 9999 SKC QNH3040INS TX12/1121Z TNM06/1112Z
NOTAMs
Click for the latest NOTAMs
NOTAMs are issued by the DoD/FAA and will open in a separate window not controlled by AirNav.

 

 
 

Would you like to see your business listed on this page?

 If your business provides an interesting product or service to pilots, flight crews, aircraft, or users of the Prospect Peak Heliport, you should consider listing it here.  To start the listing process, click on the button below
 
Add a business
 

Other Pages about Prospect Peak Heliport

Update a link
 
Copyright © AirNav, LLC. All rights reserved. Privacy Policy  Contact